Time;durP1;ratioP1;P1;durP2;ratioP2;P2;SDS_P1;SDS_P2;PMS_P1;PMS_P2;Temp;Humidity;BMP_temperature;BMP_pressure;BME280_temperature;BME280_humidity;BME280_pressure;Samples;Min_cycle;Max_cycle;Signal;HPM_P1;HPM_P2
2022/07/26 00:01:15;;;;;;;36.13;6.88;;;;;;;24.76;100.00;97646.75;5058330;28;20106;-59
2022/07/26 00:03:41;;;;;;;34.13;6.82;;;;;;;25.00;100.00;97640.63;5058956;28;20023;-60
2022/07/26 00:06:06;;;;;;;34.80;6.60;;;;;;;24.92;100.00;97640.59;5058791;28;20037;-60
2022/07/26 00:08:32;;;;;;;31.25;6.28;;;;;;;24.97;100.00;97637.47;5058979;28;20027;-60
2022/07/26 00:10:58;;;;;;;31.08;6.40;;;;;;;24.54;100.00;97645.50;5058575;28;20032;-60
2022/07/26 00:13:23;;;;;;;26.92;6.05;;;;;;;24.68;100.00;97640.53;5059447;28;20036;-60
2022/07/26 00:15:49;;;;;;;36.30;6.25;;;;;;;24.59;100.00;97637.00;5059127;28;20139;-60
2022/07/26 00:18:15;;;;;;;33.55;6.82;;;;;;;24.61;100.00;97632.34;5057946;28;20079;-60
2022/07/26 00:20:41;;;;;;;32.50;6.35;;;;;;;24.65;100.00;97638.19;5057848;28;20036;-59
2022/07/26 00:23:06;;;;;;;31.73;6.70;;;;;;;25.09;100.00;97640.66;5058880;28;20062;-60
2022/07/26 00:25:32;;;;;;;34.90;6.80;;;;;;;24.24;100.00;97638.78;5058395;28;20040;-59
2022/07/26 00:27:57;;;;;;;34.90;6.35;;;;;;;24.55;100.00;97640.97;5058749;28;20130;-59
2022/07/26 00:30:23;;;;;;;35.33;6.75;;;;;;;24.69;100.00;97645.72;5057681;28;20082;-59
2022/07/26 00:32:51;;;;;;;32.92;6.30;;;;;;;24.68;100.00;97641.38;5056724;28;20513;-59
2022/07/26 00:35:17;;;;;;;36.63;6.95;;;;;;;24.43;100.00;97638.56;5058214;28;20031;-61
2022/07/26 00:37:42;;;;;;;29.88;6.30;;;;;;;24.25;100.00;97645.81;5058205;28;20101;-60
2022/07/26 00:40:09;;;;;;;41.80;7.28;;;;;;;24.55;100.00;97649.81;5057604;28;20028;-59
2022/07/26 00:42:34;;;;;;;35.88;6.82;;;;;;;24.42;100.00;97646.72;5046796;28;20089;-58
2022/07/26 00:45:00;;;;;;;26.63;5.88;;;;;;;24.49;100.00;97647.75;5059010;28;20036;-59
2022/07/26 00:47:25;;;;;;;39.40;7.38;;;;;;;24.55;100.00;97647.13;5057493;28;20044;-59
2022/07/26 00:49:51;;;;;;;36.60;7.00;;;;;;;24.40;100.00;97649.53;5058347;28;20465;-58
2022/07/26 00:52:16;;;;;;;32.28;6.38;;;;;;;24.56;100.00;97653.34;5057328;28;20533;-58
2022/07/26 00:54:44;;;;;;;28.80;6.22;;;;;;;24.44;100.00;97650.91;5064315;28;20581;-59
2022/07/26 00:57:13;;;;;;;36.83;6.95;;;;;;;24.11;100.00;97659.72;5057330;28;20064;-59
2022/07/26 00:59:39;;;;;;;33.22;6.40;;;;;;;24.35;100.00;97667.84;5057938;28;20035;-60
2022/07/26 01:02:07;;;;;;;35.63;6.82;;;;;;;24.07;100.00;97655.69;5057366;28;20036;-58
2022/07/26 01:04:33;;;;;;;40.75;7.40;;;;;;;24.22;100.00;97662.09;5058138;28;20087;-58
2022/07/26 01:06:58;;;;;;;32.83;6.72;;;;;;;24.28;100.00;97661.50;5058058;28;20072;-59
2022/07/26 01:09:24;;;;;;;30.50;6.13;;;;;;;24.54;100.00;97666.81;5058061;28;20268;-58
2022/07/26 01:11:50;;;;;;;41.25;7.03;;;;;;;24.06;100.00;97665.53;5057179;28;20040;-58
2022/07/26 01:14:19;;;;;;;40.33;7.55;;;;;;;23.95;100.00;97660.41;5058213;28;20040;-59
2022/07/26 01:16:44;;;;;;;37.83;6.70;;;;;;;23.97;100.00;97656.63;5058777;28;20037;-58
2022/07/26 01:19:09;;;;;;;38.08;7.10;;;;;;;23.94;100.00;97658.75;5057337;28;20032;-59
2022/07/26 01:21:35;;;;;;;35.55;6.88;;;;;;;23.91;100.00;97649.25;5057327;28;20048;-61
2022/07/26 01:24:01;;;;;;;31.55;6.57;;;;;;;23.85;100.00;97655.19;5058128;28;20044;-59
2022/07/26 01:26:26;;;;;;;32.75;6.63;;;;;;;24.05;100.00;97662.00;5057673;28;20194;-59
2022/07/26 01:28:52;;;;;;;35.08;6.45;;;;;;;24.09;100.00;97653.69;5057788;28;20028;-58
2022/07/26 01:31:17;;;;;;;33.88;6.70;;;;;;;24.16;100.00;97646.75;5057145;28;20144;-59
2022/07/26 01:33:43;;;;;;;29.20;6.57;;;;;;;23.89;100.00;97651.22;5059068;28;20100;-58
2022/07/26 01:36:08;;;;;;;39.90;7.25;;;;;;;23.91;100.00;97653.75;5057336;28;20037;-58
2022/07/26 01:38:34;;;;;;;32.88;6.30;;;;;;;24.26;100.00;97652.78;5057641;28;20028;-59
2022/07/26 01:40:59;;;;;;;28.63;6.28;;;;;;;23.79;100.00;97646.00;5056252;28;20577;-58
2022/07/26 01:43:25;;;;;;;36.28;6.97;;;;;;;23.83;100.00;97647.38;5058389;28;20032;-58
2022/07/26 01:45:51;;;;;;;30.15;5.95;;;;;;;23.92;100.00;97648.25;5056345;28;20094;-58
2022/07/26 01:48:16;;;;;;;39.05;6.47;;;;;;;24.28;100.00;97656.16;5057628;28;20048;-62
2022/07/26 01:50:41;;;;;;;31.63;5.82;;;;;;;23.78;100.00;97654.13;5056670;28;20591;-59
2022/07/26 01:53:07;;;;;;;34.70;6.82;;;;;;;23.51;100.00;97658.56;5058574;28;20020;-58
2022/07/26 01:55:33;;;;;;;32.60;6.30;;;;;;;23.48;100.00;97657.03;5057233;28;20032;-58
2022/07/26 01:57:58;;;;;;;35.10;6.28;;;;;;;23.72;100.00;97665.41;5057027;28;20120;-58
2022/07/26 02:00:24;;;;;;;42.75;7.07;;;;;;;23.73;100.00;97664.38;5056241;28;20028;-60
2022/07/26 02:02:49;;;;;;;35.03;6.65;;;;;;;23.41;100.00;97663.13;5058324;28;20029;-59
2022/07/26 02:05:15;;;;;;;34.95;6.40;;;;;;;23.47;100.00;97665.16;5057694;28;20019;-58
2022/07/26 02:07:42;;;;;;;31.05;5.93;;;;;;;23.62;100.00;97661.00;5057592;28;20566;-58
2022/07/26 02:10:09;;;;;;;49.33;7.97;;;;;;;23.63;100.00;97667.97;5057135;28;20102;-58
2022/07/26 02:12:35;;;;;;;41.10;6.72;;;;;;;23.51;100.00;97663.91;5057120;28;20553;-59
2022/07/26 02:15:00;;;;;;;29.73;5.70;;;;;;;23.78;100.00;97675.41;5057864;28;20470;-59
2022/07/26 02:17:26;;;;;;;36.58;6.38;;;;;;;23.26;100.00;97676.13;5056385;28;20093;-59
2022/07/26 02:19:51;;;;;;;34.38;6.20;;;;;;;23.57;100.00;97673.91;5057862;28;20040;-59
2022/07/26 02:22:21;;;;;;;33.30;6.30;;;;;;;23.55;100.00;97673.25;5056641;28;20419;-59
2022/07/26 02:24:47;;;;;;;37.85;6.22;;;;;;;23.47;100.00;97673.16;5057653;28;20057;-58
2022/07/26 02:27:13;;;;;;;42.22;6.35;;;;;;;23.57;100.00;97676.59;5057330;28;20041;-58
2022/07/26 02:29:39;;;;;;;35.05;6.45;;;;;;;23.28;100.00;97668.81;5062325;28;20093;-59
2022/07/26 02:32:05;;;;;;;40.53;6.45;;;;;;;23.08;100.00;97666.28;5059992;28;20093;-58
2022/07/26 02:34:31;;;;;;;34.88;6.22;;;;;;;22.89;100.00;97661.91;5061504;28;20035;-58
2022/07/26 02:36:57;;;;;;;38.97;6.47;;;;;;;22.96;100.00;97659.50;5060335;28;20037;-59
2022/07/26 02:39:26;;;;;;;39.03;6.43;;;;;;;22.85;100.00;97651.72;5060545;28;20054;-59
2022/07/26 02:41:56;;;;;;;36.22;6.38;;;;;;;22.99;100.00;97648.53;5059489;28;20094;-59
2022/07/26 02:44:22;;;;;;;41.08;6.95;;;;;;;22.98;100.00;97654.03;5060529;28;20139;-59
2022/07/26 02:46:47;;;;;;;43.58;6.68;;;;;;;23.06;100.00;97659.47;5060840;28;20091;-59
2022/07/26 02:49:13;;;;;;;31.52;6.07;;;;;;;22.94;100.00;97656.16;5060715;28;20021;-59
2022/07/26 02:51:38;;;;;;;30.00;5.65;;;;;;;23.03;100.00;97659.72;5059098;28;20032;-59
2022/07/26 02:54:04;;;;;;;40.25;6.45;;;;;;;23.35;100.00;97669.06;5060486;28;20033;-60
2022/07/26 02:56:29;;;;;;;34.47;5.88;;;;;;;23.26;100.00;97671.63;5061064;28;20082;-59
2022/07/26 02:58:55;;;;;;;33.05;6.07;;;;;;;22.98;100.00;97673.47;5060541;28;20029;-59
2022/07/26 03:01:20;;;;;;;40.47;6.47;;;;;;;23.29;100.00;97676.66;5059121;28;20576;-59
2022/07/26 03:03:47;;;;;;;30.60;6.18;;;;;;;23.20;100.00;97677.56;5060641;28;20041;-60
2022/07/26 03:06:13;;;;;;;28.88;5.80;;;;;;;23.41;100.00;97685.25;5060489;28;20067;-59
2022/07/26 03:08:38;;;;;;;26.75;5.47;;;;;;;23.57;100.00;97695.22;5060842;28;20048;-59
2022/07/26 03:11:05;;;;;;;28.50;5.70;;;;;;;23.44;100.00;97690.28;5059406;28;20109;-60
2022/07/26 03:13:31;;;;;;;27.65;5.43;;;;;;;23.23;100.00;97693.25;5061069;28;20056;-59
2022/07/26 03:15:56;;;;;;;31.27;5.68;;;;;;;23.36;100.00;97690.22;5059883;28;20644;-59
2022/07/26 03:18:21;;;;;;;31.42;6.07;;;;;;;23.18;100.00;97690.19;5060372;28;20048;-61
2022/07/26 03:20:47;;;;;;;26.80;5.55;;;;;;;23.25;100.00;97696.59;5059477;28;20045;-59
2022/07/26 03:23:12;;;;;;;28.42;5.55;;;;;;;23.24;100.00;97700.22;5060590;28;20149;-59
2022/07/26 03:25:38;;;;;;;30.45;5.70;;;;;;;23.41;100.00;97703.03;5061746;28;20118;-60
2022/07/26 03:28:03;;;;;;;26.85;5.50;;;;;;;23.31;100.00;97704.97;5060326;28;20143;-60
2022/07/26 03:30:29;;;;;;;37.58;6.50;;;;;;;23.13;100.00;97704.94;5058961;28;20525;-59
2022/07/26 03:32:54;;;;;;;29.00;5.65;;;;;;;23.11;100.00;97705.06;5060143;28;20098;-59
2022/07/26 03:35:19;;;;;;;22.88;5.03;;;;;;;22.99;100.00;97706.22;5060020;28;20024;-59
2022/07/26 03:37:45;;;;;;;23.45;5.22;;;;;;;22.86;100.00;97712.72;5059745;28;20096;-59
2022/07/26 03:40:11;;;;;;;39.28;6.68;;;;;;;23.01;100.00;97712.22;5058324;28;20033;-59
2022/07/26 03:42:37;;;;;;;27.90;5.35;;;;;;;22.83;100.00;97706.88;5059862;28;20107;-60
2022/07/26 03:45:03;;;;;;;29.40;5.70;;;;;;;22.81;100.00;97709.69;5059968;28;20025;-59
2022/07/26 03:47:28;;;;;;;35.28;5.90;;;;;;;23.06;100.00;97707.34;5059062;28;20098;-59
2022/07/26 03:49:54;;;;;;;31.60;5.70;;;;;;;23.23;100.00;97698.56;5059845;28;20086;-59
2022/07/26 03:52:19;;;;;;;25.13;5.40;;;;;;;22.71;100.00;97700.91;5059879;28;20836;-59
2022/07/26 03:54:44;;;;;;;28.02;5.55;;;;;;;22.91;100.00;97721.09;5059423;28;20036;-60
2022/07/26 03:57:10;;;;;;;29.15;5.57;;;;;;;23.02;100.00;97716.56;5059075;28;20040;-59
2022/07/26 03:59:35;;;;;;;30.38;5.97;;;;;;;23.22;100.00;97712.84;5059335;28;20028;-59
2022/07/26 04:02:01;;;;;;;22.77;5.05;;;;;;;23.10;100.00;97708.69;5058551;28;20578;-59
2022/07/26 04:04:26;;;;;;;28.88;5.25;;;;;;;23.01;100.00;97714.88;5059491;28;20028;-58
2022/07/26 04:06:51;;;;;;;65.28;9.20;;;;;;;23.07;100.00;97709.03;5057109;28;20041;-58
2022/07/26 04:09:17;;;;;;;24.02;4.95;;;;;;;23.03;100.00;97719.09;5060548;28;20449;-58
2022/07/26 04:11:42;;;;;;;24.55;5.05;;;;;;;23.12;100.00;97706.72;5058007;28;20090;-59
2022/07/26 04:14:09;;;;;;;23.45;4.88;;;;;;;23.16;100.00;97705.47;5059152;28;20030;-59
2022/07/26 04:16:34;;;;;;;26.52;5.15;;;;;;;23.22;100.00;97704.84;5058578;28;20648;-59
2022/07/26 04:19:00;;;;;;;29.63;5.55;;;;;;;23.17;100.00;97709.78;5058324;28;20028;-59
2022/07/26 04:21:25;;;;;;;30.30;5.35;;;;;;;23.06;100.00;97718.81;5057473;28;20139;-60
2022/07/26 04:23:51;;;;;;;25.55;4.85;;;;;;;22.90;100.00;97714.13;5059165;28;20035;-59
2022/07/26 04:26:17;;;;;;;25.30;5.10;;;;;;;22.90;100.00;97719.44;5058476;28;20111;-59
2022/07/26 04:28:42;;;;;;;27.35;5.10;;;;;;;22.93;100.00;97720.13;5059047;28;20035;-59
2022/07/26 04:31:08;;;;;;;28.55;5.32;;;;;;;23.02;100.00;97716.56;5057474;28;20591;-59
2022/07/26 04:33:34;;;;;;;23.50;4.90;;;;;;;23.18;100.00;97726.59;5059024;28;20040;-59
2022/07/26 04:36:00;;;;;;;29.15;5.97;;;;;;;22.68;100.00;97725.09;5058266;28;20089;-59
2022/07/26 04:38:25;;;;;;;27.45;6.68;;;;;;;23.07;100.00;97725.81;5058109;28;20131;-60
2022/07/26 04:41:06;;;;;;;26.55;5.45;;;;;;;23.20;100.00;97729.94;5012291;28;20049;-61
2022/07/26 04:43:32;;;;;;;23.23;5.00;;;;;;;22.98;100.00;97731.16;5058858;28;20024;-59
2022/07/26 04:45:57;;;;;;;23.67;4.93;;;;;;;22.95;100.00;97728.78;5058317;28;20056;-59
2022/07/26 04:48:24;;;;;;;32.58;5.97;;;;;;;23.27;100.00;97720.38;5058432;28;20027;-60
2022/07/26 04:50:49;;;;;;;26.10;5.32;;;;;;;22.65;100.00;97728.91;5057420;28;20048;-60
2022/07/26 04:53:14;;;;;;;28.17;5.50;;;;;;;22.68;100.00;97719.78;5058271;28;20025;-59
2022/07/26 04:55:40;;;;;;;31.80;5.63;;;;;;;22.88;100.00;97726.72;5058205;28;20036;-59
2022/07/26 04:58:06;;;;;;;23.48;5.13;;;;;;;22.86;100.00;97733.97;5058530;28;20639;-59
2022/07/26 05:00:32;;;;;;;27.77;5.70;;;;;;;22.98;100.00;97736.47;5057395;28;20036;-60
2022/07/26 05:02:59;;;;;;;25.67;5.28;;;;;;;23.24;100.00;97737.47;5058301;28;20037;-59
2022/07/26 05:05:26;;;;;;;24.95;5.03;;;;;;;23.04;100.00;97735.91;5057820;28;20037;-59
2022/07/26 05:07:54;;;;;;;29.48;5.18;;;;;;;23.52;100.00;97734.75;5058636;28;20422;-59
2022/07/26 05:10:26;;;;;;;25.35;5.07;;;;;;;23.78;100.00;97734.00;5057899;28;20024;-60
2022/07/26 05:12:51;;;;;;;26.25;5.35;;;;;;;23.23;100.00;97741.13;5058906;28;20545;-60
2022/07/26 05:15:17;;;;;;;24.35;4.85;;;;;;;23.75;100.00;97739.66;5057949;28;20032;-60
2022/07/26 05:17:43;;;;;;;27.60;5.28;;;;;;;23.90;100.00;97743.47;5057949;28;20119;-60
2022/07/26 05:20:10;;;;;;;33.50;6.38;;;;;;;23.46;100.00;97743.34;5057526;28;20024;-59
2022/07/26 05:22:36;;;;;;;20.38;4.97;;;;;;;23.42;100.00;97736.66;5058939;28;20063;-60
2022/07/26 05:25:03;;;;;;;25.75;5.05;;;;;;;23.74;100.00;97748.63;5058323;28;20585;-60
2022/07/26 05:27:28;;;;;;;21.98;4.72;;;;;;;23.41;100.00;97734.97;5058016;28;20044;-60
2022/07/26 05:29:54;;;;;;;33.05;6.20;;;;;;;24.03;100.00;97735.91;5056551;28;20028;-60
2022/07/26 05:32:21;;;;;;;28.25;5.20;;;;;;;23.49;100.00;97740.41;5057829;28;20044;-60
2022/07/26 05:34:46;;;;;;;23.33;4.90;;;;;;;23.86;100.00;97739.44;5058617;28;20829;-60
2022/07/26 05:37:11;;;;;;;28.75;5.22;;;;;;;23.64;100.00;97733.56;5057226;28;20992;-59
2022/07/26 05:39:37;;;;;;;29.30;5.70;;;;;;;23.99;100.00;97741.72;5058276;28;20598;-59
2022/07/26 05:42:02;;;;;;;27.50;5.15;;;;;;;24.30;100.00;97739.44;5057045;28;20056;-60
2022/07/26 05:44:28;;;;;;;21.92;4.70;;;;;;;24.65;100.00;97734.16;5058301;28;20024;-59
2022/07/26 05:46:53;;;;;;;28.92;5.32;;;;;;;24.88;100.00;97721.13;5057754;28;20060;-60
2022/07/26 05:49:19;;;;;;;23.83;5.18;;;;;;;24.93;100.00;97719.66;5058112;28;20016;-59
2022/07/26 05:51:44;;;;;;;23.23;4.95;;;;;;;24.66;100.00;97722.53;5057454;28;20032;-60
2022/07/26 05:54:09;;;;;;;28.33;5.25;;;;;;;24.89;100.00;97723.63;5058323;28;20731;-61
2022/07/26 05:56:35;;;;;;;26.73;4.82;;;;;;;25.06;100.00;97729.88;5057954;28;20513;-61
2022/07/26 05:59:00;;;;;;;25.98;4.88;;;;;;;24.70;100.00;97727.38;5057318;28;20035;-60
2022/07/26 06:01:25;;;;;;;30.45;5.32;;;;;;;24.65;100.00;97737.69;5056842;28;20120;-62
2022/07/26 06:03:51;;;;;;;27.63;5.25;;;;;;;25.00;100.00;97735.88;5061985;28;20024;-61
2022/07/26 06:06:16;;;;;;;26.23;5.10;;;;;;;25.15;100.00;97744.91;5061508;28;20792;-60
2022/07/26 06:08:42;;;;;;;26.50;4.80;;;;;;;25.58;100.00;97740.41;5061609;28;20368;-61
2022/07/26 06:11:07;;;;;;;22.75;4.25;;;;;;;25.84;100.00;97734.06;5060904;28;20124;-58
2022/07/26 06:13:32;;;;;;;29.60;5.38;;;;;;;25.43;100.00;97731.34;5062072;28;20024;-61
2022/07/26 06:15:58;;;;;;;23.75;4.80;;;;;;;25.39;100.00;97740.69;5061245;28;20401;-60
2022/07/26 06:18:23;;;;;;;27.65;5.13;;;;;;;25.86;100.00;97737.41;5061145;28;20038;-58
2022/07/26 06:20:49;;;;;;;25.27;4.75;;;;;;;25.06;100.00;97739.72;5060365;28;20042;-58
2022/07/26 06:23:14;;;;;;;21.30;4.43;;;;;;;25.68;100.00;97734.91;5061564;28;20268;-58
2022/07/26 06:25:40;;;;;;;24.50;4.57;;;;;;;25.09;100.00;97750.06;5061186;28;20039;-61
2022/07/26 06:28:08;;;;;;;24.08;4.50;;;;;;;24.90;100.00;97740.47;5061683;28;20028;-61
2022/07/26 06:30:35;;;;;;;29.73;4.88;;;;;;;24.71;100.00;97747.72;5059789;28;20109;-61
2022/07/26 06:33:00;;;;;;;28.02;4.70;;;;;;;24.97;100.00;97752.19;5060471;28;20047;-61
2022/07/26 06:35:29;;;;;;;19.40;4.25;;;;;;;24.69;100.00;97747.06;5060934;28;20036;-59
2022/07/26 06:37:56;;;;;;;22.95;4.78;;;;;;;24.65;100.00;97748.38;5059813;28;20074;-60
2022/07/26 06:40:21;;;;;;;27.55;4.82;;;;;;;24.42;100.00;97745.34;5060447;28;20028;-60
2022/07/26 06:42:47;;;;;;;25.38;4.85;;;;;;;24.72;100.00;97752.06;5061602;28;20204;-60
2022/07/26 06:45:12;;;;;;;23.42;4.97;;;;;;;24.55;100.00;97752.97;5060840;28;20755;-59
2022/07/26 06:47:37;;;;;;;21.58;4.45;;;;;;;25.37;100.00;97748.84;5060849;28;20025;-59
2022/07/26 06:50:04;;;;;;;30.33;5.05;;;;;;;25.82;100.00;97751.25;5060452;28;20018;-60
2022/07/26 06:52:31;;;;;;;24.63;4.40;;;;;;;25.68;100.00;97750.91;5060280;28;20040;-59
2022/07/26 06:54:57;;;;;;;26.75;4.57;;;;;;;26.02;100.00;97757.16;5060680;28;20028;-59
2022/07/26 06:57:23;;;;;;;33.90;4.97;;;;;;;25.99;96.74;97755.66;5060168;28;20479;-60
2022/07/26 06:59:48;;;;;;;25.05;4.15;;;;;;;25.71;100.00;97749.75;5060751;28;20120;-59
2022/07/26 07:02:13;;;;;;;22.98;4.38;;;;;;;26.48;94.59;97752.09;5060026;28;20040;-59
2022/07/26 07:04:39;;;;;;;25.38;4.50;;;;;;;25.94;97.95;97750.81;5060441;28;20659;-60
2022/07/26 07:07:05;;;;;;;26.23;5.03;;;;;;;25.64;96.50;97752.25;5060209;28;20686;-60
2022/07/26 07:09:31;;;;;;;25.48;4.55;;;;;;;25.55;96.80;97745.22;5058831;28;20025;-59
2022/07/26 07:11:57;;;;;;;29.35;4.72;;;;;;;24.96;100.00;97745.16;5059000;28;20032;-60
2022/07/26 07:14:23;;;;;;;25.95;4.60;;;;;;;25.48;100.00;97749.56;5058235;28;20083;-60
2022/07/26 07:16:48;;;;;;;27.42;4.88;;;;;;;27.99;77.27;97740.41;5058580;28;20037;-59
2022/07/26 07:19:14;;;;;;;20.13;4.50;;;;;;;29.77;63.20;97737.72;5057998;28;20035;-60
2022/07/26 07:21:39;;;;;;;19.25;4.35;;;;;;;31.35;53.62;97731.97;5063595;28;20040;-59
2022/07/26 07:24:05;;;;;;;22.42;4.35;;;;;;;33.81;45.98;97727.31;5059945;28;20028;-60
2022/07/26 07:26:31;;;;;;;27.20;4.30;;;;;;;32.25;46.54;97739.84;5057680;28;20044;-60
2022/07/26 07:28:57;;;;;;;23.38;4.32;;;;;;;33.53;45.04;97736.63;5058128;28;20017;-60
2022/07/26 07:31:23;;;;;;;23.83;4.30;;;;;;;32.43;44.72;97729.25;5057556;28;20426;-60
2022/07/26 07:33:48;;;;;;;19.23;4.30;;;;;;;32.17;48.12;97734.69;5058473;28;20031;-60
2022/07/26 07:36:14;;;;;;;22.23;4.03;;;;;;;34.65;43.62;97724.31;5059750;28;20032;-60
2022/07/26 07:38:39;;;;;;;13.20;3.63;;;;;;;31.15;47.92;97723.81;5060168;28;20145;-60
2022/07/26 07:41:04;;;;;;;12.05;3.58;;;;;;;33.29;43.76;97721.16;5059268;28;20072;-61
2022/07/26 07:43:30;;;;;;;15.38;3.72;;;;;;;33.48;43.65;97730.22;5060427;28;20062;-60
2022/07/26 07:45:55;;;;;;;15.40;3.72;;;;;;;31.99;45.87;97722.59;5059765;28;20047;-60
2022/07/26 07:48:20;;;;;;;15.95;3.95;;;;;;;33.44;44.25;97727.13;5059565;28;20115;-61
2022/07/26 07:50:46;;;;;;;22.65;4.00;;;;;;;32.39;44.58;97722.63;5058856;28;20033;-60
2022/07/26 07:53:11;;;;;;;16.27;4.00;;;;;;;34.14;41.19;97718.13;5059983;28;20035;-60
2022/07/26 07:55:36;;;;;;;12.85;3.60;;;;;;;32.23;43.42;97717.66;5059140;28;20515;-60
2022/07/26 07:58:02;;;;;;;11.90;3.22;;;;;;;30.98;48.09;97712.56;5059491;28;20071;-60
2022/07/26 08:00:28;;;;;;;17.88;4.25;;;;;;;30.91;46.04;97709.84;5058173;28;20461;-60
2022/07/26 08:02:54;;;;;;;16.92;3.90;;;;;;;31.58;45.59;97702.03;5059992;28;20566;-61
2022/07/26 08:05:19;;;;;;;18.63;4.03;;;;;;;33.54;41.44;97710.41;5059453;28;20028;-60
2022/07/26 08:07:45;;;;;;;15.13;3.70;;;;;;;30.20;47.27;97701.06;5058956;28;20710;-60
2022/07/26 08:10:10;;;;;;;23.45;4.60;;;;;;;31.94;44.06;97705.38;5058800;28;20107;-62
2022/07/26 08:12:36;;;;;;;14.15;3.63;;;;;;;32.59;41.94;97700.16;5060157;28;20023;-61
2022/07/26 08:15:02;;;;;;;17.38;3.88;;;;;;;34.07;39.21;97699.22;5058850;28;20092;-61
2022/07/26 08:17:27;;;;;;;17.05;3.50;;;;;;;34.26;38.34;97710.13;5058695;28;20133;-61
2022/07/26 08:19:52;;;;;;;13.75;3.47;;;;;;;30.93;43.45;97702.41;5059430;28;20119;-62
2022/07/26 08:22:18;;;;;;;15.65;3.90;;;;;;;30.38;46.00;97714.88;5058532;28;20040;-61
2022/07/26 08:24:45;;;;;;;14.88;3.22;;;;;;;30.78;46.73;97711.63;5059573;28;20740;-61
2022/07/26 08:27:11;;;;;;;15.98;3.97;;;;;;;30.01;48.62;97702.56;5058190;28;20114;-62
2022/07/26 08:29:37;;;;;;;16.95;3.85;;;;;;;30.92;48.25;97711.50;5058891;28;20016;-61
2022/07/26 08:32:02;;;;;;;22.67;3.97;;;;;;;32.08;45.78;97713.28;5057956;28;20047;-61
2022/07/26 08:34:28;;;;;;;15.75;4.22;;;;;;;30.53;46.95;97710.25;5057657;28;20488;-62
2022/07/26 08:36:53;;;;;;;14.35;3.50;;;;;;;31.08;46.69;97709.50;5059417;28;20051;-61
2022/07/26 08:39:18;;;;;;;20.75;4.28;;;;;;;29.40;50.49;97718.09;5059395;28;20024;-61
2022/07/26 08:41:44;;;;;;;19.48;4.03;;;;;;;31.40;46.89;97723.31;5058353;28;20119;-61
2022/07/26 08:44:11;;;;;;;14.43;3.63;;;;;;;33.01;42.03;97714.16;5059101;28;20025;-61
2022/07/26 08:46:39;;;;;;;14.45;3.60;;;;;;;32.97;41.79;97713.75;5058963;28;20593;-61
2022/07/26 08:49:09;;;;;;;15.07;3.50;;;;;;;34.27;38.78;97715.34;5059284;28;20027;-62
2022/07/26 08:51:41;;;;;;;13.27;3.25;;;;;;;36.72;35.77;97716.03;5058016;28;20043;-61
2022/07/26 08:54:08;;;;;;;17.98;3.40;;;;;;;34.20;38.14;97711.84;5059556;28;20099;-61
2022/07/26 08:56:36;;;;;;;14.23;3.65;;;;;;;32.79;39.33;97706.38;5058320;28;20036;-61
2022/07/26 08:59:03;;;;;;;11.93;3.20;;;;;;;30.59;42.30;97718.56;5058481;28;20135;-62
2022/07/26 09:01:28;;;;;;;12.18;3.05;;;;;;;29.90;43.50;97714.69;5056465;28;20115;-61
2022/07/26 09:03:54;;;;;;;25.83;4.22;;;;;;;28.80;45.74;97722.72;5058218;28;20971;-61
2022/07/26 09:06:22;;;;;;;13.73;3.08;;;;;;;29.02;46.05;97710.19;5058213;28;20321;-61
2022/07/26 09:08:51;;;;;;;15.65;3.65;;;;;;;29.12;45.95;97719.81;5057467;28;20063;-61
2022/07/26 09:11:22;;;;;;;17.65;3.55;;;;;;;28.32;45.53;97718.66;5057212;28;20478;-61
2022/07/26 09:14:07;;;;;;;20.55;3.67;;;;;;;28.91;44.79;97718.72;5058034;28;20040;-61
2022/07/26 09:16:33;;;;;;;16.88;3.50;;;;;;;28.65;44.64;97716.50;5058259;28;20571;-61
2022/07/26 09:19:21;;;;;;;17.17;3.67;;;;;;;28.94;46.12;97729.06;5058020;28;20532;-61
2022/07/26 09:21:46;;;;;;;17.45;3.72;;;;;;;30.86;41.25;97719.50;5057446;28;20102;-61
2022/07/26 09:24:12;;;;;;;20.17;3.97;;;;;;;31.74;39.58;97721.53;5058145;28;20024;-60
2022/07/26 09:26:37;;;;;;;16.63;3.38;;;;;;;31.75;38.87;97717.81;5057775;28;20103;-62
2022/07/26 09:29:10;;;;;;;16.55;3.50;;;;;;;33.75;35.67;97715.50;5057855;28;20028;-63
2022/07/26 09:31:37;;;;;;;15.75;3.50;;;;;;;33.71;36.32;97722.41;5057172;28;20067;-61
2022/07/26 09:34:03;;;;;;;16.42;3.22;;;;;;;33.59;34.91;97721.41;5056370;28;20033;-62
2022/07/26 09:36:29;;;;;;;15.27;3.30;;;;;;;31.64;37.93;97714.66;5058099;28;20041;-61
2022/07/26 09:38:58;;;;;;;14.85;3.20;;;;;;;30.15;40.98;97723.19;5062914;28;20028;-61
2022/07/26 09:41:35;;;;;;;14.57;3.08;;;;;;;30.39;40.61;97716.56;5061351;28;20048;-61
2022/07/26 09:44:18;;;;;;;24.58;4.05;;;;;;;29.96;40.97;97724.66;5061731;28;20024;-62
2022/07/26 09:46:51;;;;;;;13.93;3.13;;;;;;;29.18;42.19;97725.25;5062287;28;20706;-61
2022/07/26 09:49:19;;;;;;;16.80;3.85;;;;;;;28.76;43.92;97726.75;5062086;28;20024;-61
2022/07/26 09:51:52;;;;;;;18.15;3.83;;;;;;;29.27;44.31;97725.19;5060730;28;20607;-63
2022/07/26 09:54:31;;;;;;;21.48;4.18;;;;;;;31.69;39.76;97727.56;5062026;28;20123;-61
2022/07/26 09:56:58;;;;;;;17.50;3.55;;;;;;;31.53;39.25;97728.75;5062086;28;20426;-61
2022/07/26 09:59:25;;;;;;;16.23;3.40;;;;;;;32.22;39.44;97718.66;5061451;28;20028;-61
2022/07/26 10:01:53;;;;;;;33.40;5.78;;;;;;;34.09;36.55;97735.00;5052658;28;20098;-61
2022/07/26 10:04:19;;;;;;;16.70;3.47;;;;;;;36.21;33.37;97721.06;5063637;28;20069;-61
2022/07/26 10:06:45;;;;;;;11.13;2.60;;;;;;;33.34;36.10;97718.63;5063888;28;20040;-62
2022/07/26 10:09:12;;;;;;;12.95;2.85;;;;;;;33.15;34.75;97718.50;5064534;28;20047;-61
2022/07/26 10:11:41;;;;;;;13.43;2.72;;;;;;;33.98;34.17;97720.31;5062322;28;20036;-62
2022/07/26 10:14:32;;;;;;;13.45;2.80;;;;;;;33.73;34.95;97709.50;5063922;28;20040;-62
2022/07/26 10:16:58;;;;;;;11.85;2.97;;;;;;;34.62;34.42;97720.19;5063752;28;20056;-61
2022/07/26 10:19:40;;;;;;;11.88;2.72;;;;;;;33.69;34.24;97712.84;5063996;28;20474;-61
2022/07/26 10:22:30;;;;;;;17.73;3.33;;;;;;;32.00;37.10;97718.03;5063088;28;20041;-61
2022/07/26 10:25:16;;;;;;;9.40;2.78;;;;;;;30.84;40.14;97719.72;5064335;28;20078;-63
2022/07/26 10:27:43;;;;;;;18.88;3.80;;;;;;;30.22;41.46;97736.66;5063163;28;20376;-65
2022/07/26 10:30:14;;;;;;;27.35;3.97;;;;;;;30.75;41.80;97737.06;5061504;28;20024;-61
2022/07/26 10:32:54;;;;;;;14.98;3.17;;;;;;;32.06;40.90;97728.03;5063705;28;20498;-61
2022/07/26 10:35:28;;;;;;;12.65;3.00;;;;;;;33.00;37.66;97734.13;5061533;28;20036;-61
2022/07/26 10:38:05;;;;;;;13.98;3.30;;;;;;;32.71;38.60;97730.88;5063883;28;20984;-64
2022/07/26 10:40:31;;;;;;;13.60;3.47;;;;;;;31.63;39.21;97726.50;5062892;28;20758;-62
2022/07/26 10:43:13;;;;;;;13.73;3.13;;;;;;;31.22;41.21;97727.38;5064399;28;20033;-61
2022/07/26 10:45:39;;;;;;;12.93;2.92;;;;;;;32.52;38.76;97731.75;5063033;28;20028;-63
2022/07/26 10:48:13;;;;;;;11.52;2.83;;;;;;;33.68;36.76;97727.44;5062744;28;20028;-62
2022/07/26 10:50:41;;;;;;;10.32;2.65;;;;;;;32.46;36.93;97718.03;5062782;28;20049;-61
2022/07/26 10:53:09;;;;;;;14.27;2.95;;;;;;;34.08;34.89;97730.66;5063382;28;20063;-61
2022/07/26 10:55:54;;;;;;;10.60;3.00;;;;;;;31.92;36.42;97735.25;5063650;28;20032;-63
2022/07/26 10:58:22;;;;;;;13.52;2.90;;;;;;;30.27;38.48;97729.69;5063364;28;20448;-60
2022/07/26 11:01:03;;;;;;;15.73;3.63;;;;;;;30.30;38.77;97733.84;5062191;28;20091;-61
2022/07/26 11:03:35;;;;;;;15.87;3.27;;;;;;;29.70;40.78;97733.28;5063479;28;20169;-62
2022/07/26 11:06:21;;;;;;;15.48;3.17;;;;;;;31.02;39.41;97732.66;5062972;28;20472;-61
2022/07/26 11:08:47;;;;;;;17.90;3.40;;;;;;;32.64;35.60;97724.66;5062353;28;20055;-60
2022/07/26 11:11:13;;;;;;;21.40;3.72;;;;;;;31.90;36.38;97715.75;5057412;28;20037;-61
2022/07/26 11:13:39;;;;;;;16.13;2.95;;;;;;;33.80;35.15;97707.56;5063104;28;20098;-60
2022/07/26 11:16:07;;;;;;;14.50;3.45;;;;;;;32.60;36.20;97721.56;5061840;28;20040;-60
2022/07/26 11:18:34;;;;;;;14.07;3.17;;;;;;;32.26;36.17;97698.34;5060830;28;20490;-61